sensor_id;sensor_type;location;lat;lon;timestamp;pressure;altitude;pressure_sealevel;temperature
60731;BMP280;46580;52.114;11.674;2023-03-11T00:01:14;98818.13;;;1.35
60731;BMP280;46580;52.114;11.674;2023-03-11T00:03:39;98828.50;;;1.32
60731;BMP280;46580;52.114;11.674;2023-03-11T00:06:05;98838.91;;;1.40
60731;BMP280;46580;52.114;11.674;2023-03-11T00:08:33;98845.41;;;1.31
60731;BMP280;46580;52.114;11.674;2023-03-11T00:10:59;98867.22;;;1.34
60731;BMP280;46580;52.114;11.674;2023-03-11T00:13:26;98867.91;;;1.36
60731;BMP280;46580;52.114;11.674;2023-03-11T00:15:53;98877.34;;;1.34
60731;BMP280;46580;52.114;11.674;2023-03-11T00:18:24;98889.78;;;1.37
60731;BMP280;46580;52.114;11.674;2023-03-11T00:20:51;98902.25;;;1.40
60731;BMP280;46580;52.114;11.674;2023-03-11T00:23:18;98918.88;;;1.31
60731;BMP280;46580;52.114;11.674;2023-03-11T00:25:45;98926.59;;;1.30
60731;BMP280;46580;52.114;11.674;2023-03-11T00:28:12;98925.09;;;1.28
60731;BMP280;46580;52.114;11.674;2023-03-11T00:30:38;98938.53;;;1.28
60731;BMP280;46580;52.114;11.674;2023-03-11T00:33:05;98938.34;;;1.31
60731;BMP280;46580;52.114;11.674;2023-03-11T00:35:32;98952.00;;;1.29
60731;BMP280;46580;52.114;11.674;2023-03-11T00:38:00;98975.44;;;1.32
60731;BMP280;46580;52.114;11.674;2023-03-11T00:40:28;98989.19;;;1.28
60731;BMP280;46580;52.114;11.674;2023-03-11T00:42:54;98988.44;;;1.28
60731;BMP280;46580;52.114;11.674;2023-03-11T00:45:20;98993.59;;;1.26
60731;BMP280;46580;52.114;11.674;2023-03-11T00:47:46;99010.41;;;1.27
60731;BMP280;46580;52.114;11.674;2023-03-11T00:50:17;99010.19;;;1.30
60731;BMP280;46580;52.114;11.674;2023-03-11T00:52:44;99019.22;;;1.34
60731;BMP280;46580;52.114;11.674;2023-03-11T00:55:13;99023.97;;;1.26
60731;BMP280;46580;52.114;11.674;2023-03-11T00:57:39;99030.56;;;1.29
60731;BMP280;46580;52.114;11.674;2023-03-11T01:00:05;99039.09;;;1.28
60731;BMP280;46580;52.114;11.674;2023-03-11T01:02:35;99060.94;;;1.29
60731;BMP280;46580;52.114;11.674;2023-03-11T01:05:00;99068.47;;;1.30
60731;BMP280;46580;52.114;11.674;2023-03-11T01:07:25;99073.34;;;1.33
60731;BMP280;46580;52.114;11.674;2023-03-11T01:09:51;99075.66;;;1.36
60731;BMP280;46580;52.114;11.674;2023-03-11T01:12:16;99095.44;;;1.31
60731;BMP280;46580;52.114;11.674;2023-03-11T01:14:42;99101.31;;;1.44
60731;BMP280;46580;52.114;11.674;2023-03-11T01:17:07;99116.94;;;1.38
60731;BMP280;46580;52.114;11.674;2023-03-11T01:19:33;99124.72;;;1.35
60731;BMP280;46580;52.114;11.674;2023-03-11T01:21:58;99141.22;;;1.28
60731;BMP280;46580;52.114;11.674;2023-03-11T01:24:23;99154.81;;;1.27
60731;BMP280;46580;52.114;11.674;2023-03-11T01:26:49;99164.13;;;1.27
60731;BMP280;46580;52.114;11.674;2023-03-11T01:29:14;99183.38;;;1.29
60731;BMP280;46580;52.114;11.674;2023-03-11T01:31:40;99175.25;;;1.24
60731;BMP280;46580;52.114;11.674;2023-03-11T01:34:06;99188.03;;;1.23
60731;BMP280;46580;52.114;11.674;2023-03-11T01:36:33;99201.59;;;1.22
60731;BMP280;46580;52.114;11.674;2023-03-11T01:38:58;99197.34;;;1.22
60731;BMP280;46580;52.114;11.674;2023-03-11T01:41:23;99195.53;;;1.24
60731;BMP280;46580;52.114;11.674;2023-03-11T01:43:52;99212.44;;;1.24
60731;BMP280;46580;52.114;11.674;2023-03-11T01:46:22;99217.59;;;1.22
60731;BMP280;46580;52.114;11.674;2023-03-11T01:48:50;99212.53;;;1.22
60731;BMP280;46580;52.114;11.674;2023-03-11T01:51:21;99221.84;;;1.22
60731;BMP280;46580;52.114;11.674;2023-03-11T01:53:48;99234.66;;;1.20
60731;BMP280;46580;52.114;11.674;2023-03-11T01:56:14;99231.72;;;1.26
60731;BMP280;46580;52.114;11.674;2023-03-11T01:58:43;99249.72;;;1.22
60731;BMP280;46580;52.114;11.674;2023-03-11T02:01:11;99260.78;;;1.21
60731;BMP280;46580;52.114;11.674;2023-03-11T02:03:39;99276.22;;;1.30
60731;BMP280;46580;52.114;11.674;2023-03-11T02:06:15;99283.47;;;1.22
60731;BMP280;46580;52.114;11.674;2023-03-11T02:08:41;99293.63;;;1.22
60731;BMP280;46580;52.114;11.674;2023-03-11T02:11:11;99291.81;;;1.24
60731;BMP280;46580;52.114;11.674;2023-03-11T02:13:40;99306.09;;;1.25
60731;BMP280;46580;52.114;11.674;2023-03-11T02:16:06;99305.19;;;1.26
60731;BMP280;46580;52.114;11.674;2023-03-11T02:18:32;99320.19;;;1.29
60731;BMP280;46580;52.114;11.674;2023-03-11T02:24:04;99333.59;;;1.31
60731;BMP280;46580;52.114;11.674;2023-03-11T02:26:40;99350.53;;;1.30
60731;BMP280;46580;52.114;11.674;2023-03-11T02:29:08;99359.84;;;1.30
60731;BMP280;46580;52.114;11.674;2023-03-11T02:31:36;99364.09;;;1.29
60731;BMP280;46580;52.114;11.674;2023-03-11T02:34:04;99373.31;;;1.30
60731;BMP280;46580;52.114;11.674;2023-03-11T02:36:38;99379.22;;;1.31
60731;BMP280;46580;52.114;11.674;2023-03-11T02:39:04;99387.72;;;1.30
60731;BMP280;46580;52.114;11.674;2023-03-11T02:41:32;99389.34;;;1.31
60731;BMP280;46580;52.114;11.674;2023-03-11T02:44:01;99395.22;;;1.31
60731;BMP280;46580;52.114;11.674;2023-03-11T02:46:27;99408.53;;;1.35
60731;BMP280;46580;52.114;11.674;2023-03-11T02:48:53;99410.28;;;1.34
60731;BMP280;46580;52.114;11.674;2023-03-11T02:51:19;99427.72;;;1.39
60731;BMP280;46580;52.114;11.674;2023-03-11T02:53:50;99428.72;;;1.36
60731;BMP280;46580;52.114;11.674;2023-03-11T02:56:17;99437.84;;;1.39
60731;BMP280;46580;52.114;11.674;2023-03-11T02:58:42;99443.81;;;1.38
60731;BMP280;46580;52.114;11.674;2023-03-11T03:01:08;99454.88;;;1.37
60731;BMP280;46580;52.114;11.674;2023-03-11T03:03:33;99444.66;;;1.38
60731;BMP280;46580;52.114;11.674;2023-03-11T03:05:59;99462.22;;;1.41
60731;BMP280;46580;52.114;11.674;2023-03-11T03:08:24;99459.75;;;1.40
60731;BMP280;46580;52.114;11.674;2023-03-11T03:10:51;99472.44;;;1.40
60731;BMP280;46580;52.114;11.674;2023-03-11T03:13:17;99486.91;;;1.38
60731;BMP280;46580;52.114;11.674;2023-03-11T03:15:42;99496.31;;;1.36
60731;BMP280;46580;52.114;11.674;2023-03-11T03:18:08;99507.34;;;1.35
60731;BMP280;46580;52.114;11.674;2023-03-11T03:20:35;99499.84;;;1.33
60731;BMP280;46580;52.114;11.674;2023-03-11T03:23:00;99510.69;;;1.35
60731;BMP280;46580;52.114;11.674;2023-03-11T03:25:26;99517.59;;;1.33
60731;BMP280;46580;52.114;11.674;2023-03-11T03:27:52;99527.81;;;1.32
60731;BMP280;46580;52.114;11.674;2023-03-11T03:30:19;99528.78;;;1.29
60731;BMP280;46580;52.114;11.674;2023-03-11T03:32:44;99539.84;;;1.29
60731;BMP280;46580;52.114;11.674;2023-03-11T03:35:10;99551.69;;;1.28
60731;BMP280;46580;52.114;11.674;2023-03-11T03:37:36;99546.63;;;1.28
60731;BMP280;46580;52.114;11.674;2023-03-11T03:40:04;99552.50;;;1.29
60731;BMP280;46580;52.114;11.674;2023-03-11T03:42:36;99562.63;;;1.29
60731;BMP280;46580;52.114;11.674;2023-03-11T03:45:03;99577.75;;;1.30
60731;BMP280;46580;52.114;11.674;2023-03-11T03:47:30;99587.16;;;1.28
60731;BMP280;46580;52.114;11.674;2023-03-11T03:49:55;99583.72;;;1.29
60731;BMP280;46580;52.114;11.674;2023-03-11T03:52:22;99583.03;;;1.27
60731;BMP280;46580;52.114;11.674;2023-03-11T03:54:47;99587.97;;;1.29
60731;BMP280;46580;52.114;11.674;2023-03-11T03:57:12;99602.38;;;1.28
60731;BMP280;46580;52.114;11.674;2023-03-11T03:59:39;99614.31;;;1.26
60731;BMP280;46580;52.114;11.674;2023-03-11T04:02:04;99610.16;;;1.25
60731;BMP280;46580;52.114;11.674;2023-03-11T04:04:30;99608.44;;;1.26
60731;BMP280;46580;52.114;11.674;2023-03-11T04:06:55;99615.03;;;1.28
60731;BMP280;46580;52.114;11.674;2023-03-11T04:09:20;99602.38;;;1.28
60731;BMP280;46580;52.114;11.674;2023-03-11T04:11:47;99621.75;;;1.29
60731;BMP280;46580;52.114;11.674;2023-03-11T04:14:12;99630.97;;;1.30
60731;BMP280;46580;52.114;11.674;2023-03-11T04:16:38;99635.22;;;1.29
60731;BMP280;46580;52.114;11.674;2023-03-11T04:19:04;99633.44;;;1.31
60731;BMP280;46580;52.114;11.674;2023-03-11T04:21:32;99638.50;;;1.31
60731;BMP280;46580;52.114;11.674;2023-03-11T04:23:59;99652.00;;;1.32
60731;BMP280;46580;52.114;11.674;2023-03-11T04:26:24;99651.09;;;1.33
60731;BMP280;46580;52.114;11.674;2023-03-11T04:28:50;99652.88;;;1.31
60731;BMP280;46580;52.114;11.674;2023-03-11T04:31:16;99651.09;;;1.33
60731;BMP280;46580;52.114;11.674;2023-03-11T04:33:42;99661.94;;;1.35
60731;BMP280;46580;52.114;11.674;2023-03-11T04:36:08;99663.75;;;1.33
60731;BMP280;46580;52.114;11.674;2023-03-11T04:38:35;99673.00;;;1.34
60731;BMP280;46580;52.114;11.674;2023-03-11T04:41:01;99686.56;;;1.33
60731;BMP280;46580;52.114;11.674;2023-03-11T04:43:27;99686.66;;;1.31
60731;BMP280;46580;52.114;11.674;2023-03-11T04:45:52;99691.63;;;1.33
60731;BMP280;46580;52.114;11.674;2023-03-11T04:48:18;99690.00;;;1.32
60731;BMP280;46580;52.114;11.674;2023-03-11T04:50:45;99691.63;;;1.33
60731;BMP280;46580;52.114;11.674;2023-03-11T04:53:10;99708.63;;;1.31
60731;BMP280;46580;52.114;11.674;2023-03-11T04:55:37;99708.47;;;1.34
60731;BMP280;46580;52.114;11.674;2023-03-11T04:58:03;99716.25;;;1.31
60731;BMP280;46580;52.114;11.674;2023-03-11T05:00:29;99715.16;;;1.35
60731;BMP280;46580;52.114;11.674;2023-03-11T05:02:54;99718.03;;;1.29
60731;BMP280;46580;52.114;11.674;2023-03-11T05:05:20;99723.84;;;1.31
60731;BMP280;46580;52.114;11.674;2023-03-11T05:07:47;99726.44;;;1.29
60731;BMP280;46580;52.114;11.674;2023-03-11T05:10:13;99724.00;;;1.28
60731;BMP280;46580;52.114;11.674;2023-03-11T05:12:38;99734.13;;;1.28
60731;BMP280;46580;52.114;11.674;2023-03-11T05:15:05;99734.13;;;1.28
60731;BMP280;46580;52.114;11.674;2023-03-11T05:17:30;99735.78;;;1.29
60731;BMP280;46580;52.114;11.674;2023-03-11T05:19:57;99740.00;;;1.29
60731;BMP280;46580;52.114;11.674;2023-03-11T05:22:22;99745.00;;;1.30
60731;BMP280;46580;52.114;11.674;2023-03-11T05:24:48;99746.09;;;1.26
60731;BMP280;46580;52.114;11.674;2023-03-11T05:27:15;99756.16;;;1.28
60731;BMP280;46580;52.114;11.674;2023-03-11T05:29:43;99754.41;;;1.28
60731;BMP280;46580;52.114;11.674;2023-03-11T05:32:09;99764.53;;;1.28
60731;BMP280;46580;52.114;11.674;2023-03-11T05:34:34;99766.38;;;1.26
60731;BMP280;46580;52.114;11.674;2023-03-11T05:37:01;99772.25;;;1.27
60731;BMP280;46580;52.114;11.674;2023-03-11T05:39:26;99771.34;;;1.28
60731;BMP280;46580;52.114;11.674;2023-03-11T05:41:52;99779.94;;;1.25
60731;BMP280;46580;52.114;11.674;2023-03-11T05:44:21;99787.53;;;1.25
60731;BMP280;46580;52.114;11.674;2023-03-11T05:46:47;99793.50;;;1.24
60731;BMP280;46580;52.114;11.674;2023-03-11T05:49:12;99801.75;;;1.28
60731;BMP280;46580;52.114;11.674;2023-03-11T05:51:38;99807.13;;;1.22
60731;BMP280;46580;52.114;11.674;2023-03-11T05:54:05;99813.00;;;1.22
60731;BMP280;46580;52.114;11.674;2023-03-11T05:56:39;99826.63;;;1.21
60731;BMP280;46580;52.114;11.674;2023-03-11T05:59:04;99812.31;;;1.20
60731;BMP280;46580;52.114;11.674;2023-03-11T06:01:29;99828.22;;;1.22
60731;BMP280;46580;52.114;11.674;2023-03-11T06:03:54;99824.88;;;1.22
60731;BMP280;46580;52.114;11.674;2023-03-11T06:06:21;99839.09;;;1.24
60731;BMP280;46580;52.114;11.674;2023-03-11T06:08:47;99838.59;;;1.18
60731;BMP280;46580;52.114;11.674;2023-03-11T06:11:14;99840.25;;;1.19
60731;BMP280;46580;52.114;11.674;2023-03-11T06:13:40;99852.03;;;1.20
60731;BMP280;46580;52.114;11.674;2023-03-11T06:16:07;99851.22;;;1.19
60731;BMP280;46580;52.114;11.674;2023-03-11T06:18:34;99855.38;;;1.20
60731;BMP280;46580;52.114;11.674;2023-03-11T06:21:02;99857.91;;;1.20
60731;BMP280;46580;52.114;11.674;2023-03-11T06:23:54;99868.06;;;1.20
60731;BMP280;46580;52.114;11.674;2023-03-11T06:26:50;99870.59;;;1.20
60731;BMP280;46580;52.114;11.674;2023-03-11T06:29:22;99868.06;;;1.20
60731;BMP280;46580;52.114;11.674;2023-03-11T06:31:51;99874.00;;;1.19
60731;BMP280;46580;52.114;11.674;2023-03-11T06:34:17;99874.81;;;1.20
60731;BMP280;46580;52.114;11.674;2023-03-11T06:36:43;99869.00;;;1.18
60731;BMP280;46580;52.114;11.674;2023-03-11T06:39:11;99878.19;;;1.20
60731;BMP280;46580;52.114;11.674;2023-03-11T06:41:37;99894.28;;;1.19
60731;BMP280;46580;52.114;11.674;2023-03-11T06:44:03;99896.81;;;1.19
60731;BMP280;46580;52.114;11.674;2023-03-11T06:46:29;99900.09;;;1.21
60731;BMP280;46580;52.114;11.674;2023-03-11T06:48:55;99906.56;;;1.27
60731;BMP280;46580;52.114;11.674;2023-03-11T06:51:20;99926.91;;;1.25
60731;BMP280;46580;52.114;11.674;2023-03-11T06:53:51;99927.56;;;1.29
60731;BMP280;46580;52.114;11.674;2023-03-11T06:56:17;99931.97;;;1.25
60731;BMP280;46580;52.114;11.674;2023-03-11T06:58:42;99935.25;;;1.27
60731;BMP280;46580;52.114;11.674;2023-03-11T07:01:17;99928.38;;;1.29
60731;BMP280;46580;52.114;11.674;2023-03-11T07:03:45;99939.31;;;1.29
60731;BMP280;46580;52.114;11.674;2023-03-11T07:06:15;99942.69;;;1.30
60731;BMP280;46580;52.114;11.674;2023-03-11T07:08:40;99946.03;;;1.30
60731;BMP280;46580;52.114;11.674;2023-03-11T07:11:09;99959.28;;;1.35
60731;BMP280;46580;52.114;11.674;2023-03-11T07:13:37;99956.69;;;1.37
60731;BMP280;46580;52.114;11.674;2023-03-11T07:16:05;99964.28;;;1.37
60731;BMP280;46580;52.114;11.674;2023-03-11T07:18:33;99969.44;;;1.35
60731;BMP280;46580;52.114;11.674;2023-03-11T07:21:04;99967.72;;;1.36
60731;BMP280;46580;52.114;11.674;2023-03-11T07:23:30;99971.88;;;1.37
60731;BMP280;46580;52.114;11.674;2023-03-11T07:25:56;99965.78;;;1.41
60731;BMP280;46580;52.114;11.674;2023-03-11T07:28:24;99981.13;;;1.38
60731;BMP280;46580;52.114;11.674;2023-03-11T07:30:51;99986.97;;;1.40
60731;BMP280;46580;52.114;11.674;2023-03-11T07:33:19;99989.19;;;1.46
60731;BMP280;46580;52.114;11.674;2023-03-11T07:35:47;99999.38;;;1.44
60731;BMP280;46580;52.114;11.674;2023-03-11T07:38:14;100000.97;;;1.47
60731;BMP280;46580;52.114;11.674;2023-03-11T07:40:44;100010.22;;;1.48
60731;BMP280;46580;52.114;11.674;2023-03-11T07:43:11;100016.00;;;1.49
60731;BMP280;46580;52.114;11.674;2023-03-11T07:45:37;100016.75;;;1.51
60731;BMP280;46580;52.114;11.674;2023-03-11T07:48:03;100025.09;;;1.53
60731;BMP280;46580;52.114;11.674;2023-03-11T07:50:29;100024.34;;;1.51
60731;BMP280;46580;52.114;11.674;2023-03-11T07:52:55;100033.44;;;1.55
60731;BMP280;46580;52.114;11.674;2023-03-11T07:55:21;100044.31;;;1.57
60731;BMP280;46580;52.114;11.674;2023-03-11T07:57:51;100051.78;;;1.60
60731;BMP280;46580;52.114;11.674;2023-03-11T08:00:17;100045.97;;;1.58
60731;BMP280;46580;52.114;11.674;2023-03-11T08:02:43;100054.47;;;1.57
60731;BMP280;46580;52.114;11.674;2023-03-11T08:05:09;100066.50;;;1.69
60731;BMP280;46580;52.114;11.674;2023-03-11T08:07:35;100070.56;;;1.56
60731;BMP280;46580;52.114;11.674;2023-03-11T08:10:01;100066.50;;;1.69
60731;BMP280;46580;52.114;11.674;2023-03-11T08:12:27;100085.47;;;1.62
60731;BMP280;46580;52.114;11.674;2023-03-11T08:14:53;100090.66;;;1.61
60731;BMP280;46580;52.114;11.674;2023-03-11T08:17:19;100100.09;;;1.57
60731;BMP280;46580;52.114;11.674;2023-03-11T08:19:45;100097.56;;;1.57
60731;BMP280;46580;52.114;11.674;2023-03-11T08:22:11;100111.88;;;1.58
60731;BMP280;46580;52.114;11.674;2023-03-11T08:24:36;100106.81;;;1.58
60731;BMP280;46580;52.114;11.674;2023-03-11T08:27:03;100114.94;;;1.65
60731;BMP280;46580;52.114;11.674;2023-03-11T08:29:29;100123.63;;;1.61
60731;BMP280;46580;52.114;11.674;2023-03-11T08:31:55;100118.53;;;1.61
60731;BMP280;46580;52.114;11.674;2023-03-11T08:34:20;100123.94;;;1.70
60731;BMP280;46580;52.114;11.674;2023-03-11T08:36:47;100134.91;;;1.70
60731;BMP280;46580;52.114;11.674;2023-03-11T08:39:12;100127.56;;;1.66
60731;BMP280;46580;52.114;11.674;2023-03-11T08:41:39;100133.13;;;1.56
60731;BMP280;46580;52.114;11.674;2023-03-11T08:44:04;100139.91;;;1.55
60731;BMP280;46580;52.114;11.674;2023-03-11T08:46:32;100145.09;;;1.54
60731;BMP280;46580;52.114;11.674;2023-03-11T08:48:58;100149.19;;;1.56
60731;BMP280;46580;52.114;11.674;2023-03-11T08:51:24;100149.41;;;1.52
60731;BMP280;46580;52.114;11.674;2023-03-11T08:53:51;100158.78;;;1.50
60731;BMP280;46580;52.114;11.674;2023-03-11T08:56:17;100163.16;;;1.48
60731;BMP280;46580;52.114;11.674;2023-03-11T08:58:43;100168.03;;;1.51
60731;BMP280;46580;52.114;11.674;2023-03-11T09:01:09;100174.81;;;1.50
60731;BMP280;46580;52.114;11.674;2023-03-11T09:03:35;100178.88;;;1.54
60731;BMP280;46580;52.114;11.674;2023-03-11T09:06:03;100175.28;;;1.58
60731;BMP280;46580;52.114;11.674;2023-03-11T09:08:31;100181.09;;;1.77
60731;BMP280;46580;52.114;11.674;2023-03-11T09:10:56;100180.56;;;1.87
60731;BMP280;46580;52.114;11.674;2023-03-11T09:13:22;100183.84;;;1.89
60731;BMP280;46580;52.114;11.674;2023-03-11T09:15:49;100187.81;;;1.94
60731;BMP280;46580;52.114;11.674;2023-03-11T09:18:15;100200.03;;;2.03
60731;BMP280;46580;52.114;11.674;2023-03-11T09:20:41;100203.00;;;2.11
60731;BMP280;46580;52.114;11.674;2023-03-11T09:23:08;100203.88;;;2.26
60731;BMP280;46580;52.114;11.674;2023-03-11T09:25:35;100203.50;;;2.17
60731;BMP280;46580;52.114;11.674;2023-03-11T09:28:01;100206.28;;;2.13
60731;BMP280;46580;52.114;11.674;2023-03-11T09:30:27;100217.47;;;2.25
60731;BMP280;46580;52.114;11.674;2023-03-11T09:32:52;100221.75;;;2.40
60731;BMP280;46580;52.114;11.674;2023-03-11T09:35:19;100225.06;;;2.42
60731;BMP280;46580;52.114;11.674;2023-03-11T09:37:45;100231.16;;;2.55
60731;BMP280;46580;52.114;11.674;2023-03-11T09:40:19;100229.31;;;2.57
60731;BMP280;46580;52.114;11.674;2023-03-11T09:45:29;100237.69;;;2.59
60731;BMP280;46580;52.114;11.674;2023-03-11T09:53:20;100254.28;;;2.80
60731;BMP280;46580;52.114;11.674;2023-03-11T09:55:53;100263.53;;;2.66
60731;BMP280;46580;52.114;11.674;2023-03-11T10:01:01;100268.56;;;2.83
60731;BMP280;46580;52.114;11.674;2023-03-11T10:03:34;100263.41;;;2.99
60731;BMP280;46580;52.114;11.674;2023-03-11T10:06:20;100273.41;;;2.87
60731;BMP280;46580;52.114;11.674;2023-03-11T10:11:21;100283.06;;;2.81
60731;BMP280;46580;52.114;11.674;2023-03-11T10:14:00;100276.25;;;2.96
60731;BMP280;46580;52.114;11.674;2023-03-11T10:16:38;100281.56;;;2.77
60731;BMP280;46580;52.114;11.674;2023-03-11T10:25:12;100283.81;;;2.98
60731;BMP280;46580;52.114;11.674;2023-03-11T10:27:43;100281.34;;;2.96
60731;BMP280;46580;52.114;11.674;2023-03-11T10:33:00;100289.72;;;2.98
60731;BMP280;46580;52.114;11.674;2023-03-11T10:35:37;100290.28;;;3.03
60731;BMP280;46580;52.114;11.674;2023-03-11T10:38:25;100294.06;;;2.81
60731;BMP280;46580;52.114;11.674;2023-03-11T10:40:59;100293.41;;;2.93
60731;BMP280;46580;52.114;11.674;2023-03-11T10:43:38;100288.69;;;3.33
60731;BMP280;46580;52.114;11.674;2023-03-11T10:46:22;100297.75;;;2.91
60731;BMP280;46580;52.114;11.674;2023-03-11T10:48:48;100295.38;;;3.03
60731;BMP280;46580;52.114;11.674;2023-03-11T10:51:17;100297.91;;;3.03
60731;BMP280;46580;52.114;11.674;2023-03-11T10:53:49;100303.81;;;3.04
60731;BMP280;46580;52.114;11.674;2023-03-11T10:58:49;100309.44;;;3.55
60731;BMP280;46580;52.114;11.674;2023-03-11T11:01:16;100317.00;;;3.42
60731;BMP280;46580;52.114;11.674;2023-03-11T11:03:49;100320.09;;;3.47
60731;BMP280;46580;52.114;11.674;2023-03-11T11:06:28;100329.78;;;3.25
60731;BMP280;46580;52.114;11.674;2023-03-11T11:09:04;100325.59;;;3.24
60731;BMP280;46580;52.114;11.674;2023-03-11T11:11:30;100330.22;;;3.48
60731;BMP280;46580;52.114;11.674;2023-03-11T11:13:57;100326.09;;;3.46
60731;BMP280;46580;52.114;11.674;2023-03-11T11:16:23;100328.63;;;3.31
60731;BMP280;46580;52.114;11.674;2023-03-11T11:18:59;100329.47;;;3.16
60731;BMP280;46580;52.114;11.674;2023-03-11T11:24:09;100340.44;;;2.85
60731;BMP280;46580;52.114;11.674;2023-03-11T11:26:37;100340.88;;;2.93
60731;BMP280;46580;52.114;11.674;2023-03-11T11:31:40;100343.78;;;3.17
60731;BMP280;46580;52.114;11.674;2023-03-11T11:34:31;100337.81;;;3.18
60731;BMP280;46580;52.114;11.674;2023-03-11T11:36:59;100340.72;;;2.96
60731;BMP280;46580;52.114;11.674;2023-03-11T11:39:29;100340.50;;;2.83
60731;BMP280;46580;52.114;11.674;2023-03-11T11:41:56;100342.13;;;2.69
60731;BMP280;46580;52.114;11.674;2023-03-11T11:44:31;100335.41;;;2.68
60731;BMP280;46580;52.114;11.674;2023-03-11T11:47:03;100335.16;;;3.04
60731;BMP280;46580;52.114;11.674;2023-03-11T11:52:43;100331.75;;;3.35
60731;BMP280;46580;52.114;11.674;2023-03-11T11:55:20;100329.06;;;3.69
60731;BMP280;46580;52.114;11.674;2023-03-11T11:57:47;100337.09;;;3.76
60731;BMP280;46580;52.114;11.674;2023-03-11T12:03:24;100336.84;;;3.81
60731;BMP280;46580;52.114;11.674;2023-03-11T12:05:55;100332.16;;;4.17
60731;BMP280;46580;52.114;11.674;2023-03-11T12:11:01;100348.25;;;4.18
60731;BMP280;46580;52.114;11.674;2023-03-11T12:16:35;100337.72;;;3.80
60731;BMP280;46580;52.114;11.674;2023-03-11T12:21:57;100336.28;;;4.05
60731;BMP280;46580;52.114;11.674;2023-03-11T12:27:38;100344.31;;;4.12
60731;BMP280;46580;52.114;11.674;2023-03-11T12:30:12;100339.81;;;4.60
60731;BMP280;46580;52.114;11.674;2023-03-11T12:32:46;100346.06;;;4.41
60731;BMP280;46580;52.114;11.674;2023-03-11T12:35:26;100346.28;;;4.23
60731;BMP280;46580;52.114;11.674;2023-03-11T12:40:45;100344.53;;;3.79
60731;BMP280;46580;52.114;11.674;2023-03-11T12:46:03;100356.41;;;4.09
60731;BMP280;46580;52.114;11.674;2023-03-11T12:53:52;100355.81;;;3.90
60731;BMP280;46580;52.114;11.674;2023-03-11T12:56:41;100363.91;;;3.97
60731;BMP280;46580;52.114;11.674;2023-03-11T13:07:39;100359.34;;;4.45
60731;BMP280;46580;52.114;11.674;2023-03-11T13:12:58;100361.00;;;4.60
60731;BMP280;46580;52.114;11.674;2023-03-11T13:15:28;100365.34;;;5.00
60731;BMP280;46580;52.114;11.674;2023-03-11T13:18:15;100364.69;;;4.70
60731;BMP280;46580;52.114;11.674;2023-03-11T13:20:47;100359.38;;;4.59
60731;BMP280;46580;52.114;11.674;2023-03-11T13:25:42;100364.88;;;4.81
60731;BMP280;46580;52.114;11.674;2023-03-11T13:31:13;100360.97;;;4.75
60731;BMP280;46580;52.114;11.674;2023-03-11T13:40:23;100372.81;;;5.44
60731;BMP280;46580;52.114;11.674;2023-03-11T13:42:55;100383.94;;;4.60
60731;BMP280;46580;52.114;11.674;2023-03-11T13:45:28;100379.47;;;4.21
60731;BMP280;46580;52.114;11.674;2023-03-11T13:48:00;100388.97;;;4.04
60731;BMP280;46580;52.114;11.674;2023-03-11T13:50:36;100387.41;;;4.02
60731;BMP280;46580;52.114;11.674;2023-03-11T13:53:15;100397.22;;;4.23
60731;BMP280;46580;52.114;11.674;2023-03-11T13:55:45;100398.41;;;4.60
60731;BMP280;46580;52.114;11.674;2023-03-11T13:58:16;100407.47;;;4.36
60731;BMP280;46580;52.114;11.674;2023-03-11T14:00:52;100408.88;;;4.55
60731;BMP280;46580;52.114;11.674;2023-03-11T14:03:20;100410.69;;;4.96
60731;BMP280;46580;52.114;11.674;2023-03-11T14:05:57;100413.44;;;5.20
60731;BMP280;46580;52.114;11.674;2023-03-11T14:08:30;100417.19;;;4.72
60731;BMP280;46580;52.114;11.674;2023-03-11T14:13:39;100412.38;;;5.38
60731;BMP280;46580;52.114;11.674;2023-03-11T14:19:04;100410.44;;;5.68
60731;BMP280;46580;52.114;11.674;2023-03-11T14:21:32;100413.56;;;5.32
60731;BMP280;46580;52.114;11.674;2023-03-11T14:24:01;100422.56;;;5.10
60731;BMP280;46580;52.114;11.674;2023-03-11T14:26:29;100422.38;;;5.13
60731;BMP280;46580;52.114;11.674;2023-03-11T14:28:57;100428.75;;;4.35
60731;BMP280;46580;52.114;11.674;2023-03-11T14:31:30;100417.53;;;4.24
60731;BMP280;46580;52.114;11.674;2023-03-11T14:34:01;100423.44;;;4.53
60731;BMP280;46580;52.114;11.674;2023-03-11T14:36:30;100422.66;;;4.66
60731;BMP280;46580;52.114;11.674;2023-03-11T14:39:03;100427.00;;;4.93
60731;BMP280;46580;52.114;11.674;2023-03-11T14:41:30;100430.28;;;4.95
60731;BMP280;46580;52.114;11.674;2023-03-11T14:43:56;100431.09;;;4.96
60731;BMP280;46580;52.114;11.674;2023-03-11T14:46:26;100432.19;;;4.92
60731;BMP280;46580;52.114;11.674;2023-03-11T14:48:54;100428.75;;;5.06
60731;BMP280;46580;52.114;11.674;2023-03-11T14:51:30;100434.91;;;4.60
60731;BMP280;46580;52.114;11.674;2023-03-11T14:54:07;100435.31;;;4.68
60731;BMP280;46580;52.114;11.674;2023-03-11T14:56:40;100436.78;;;4.72
60731;BMP280;46580;52.114;11.674;2023-03-11T14:59:15;100434.59;;;4.80
60731;BMP280;46580;52.114;11.674;2023-03-11T15:01:43;100441.56;;;4.91
60731;BMP280;46580;52.114;11.674;2023-03-11T15:04:14;100438.84;;;4.65
60731;BMP280;46580;52.114;11.674;2023-03-11T15:06:42;100449.59;;;4.57
60731;BMP280;46580;52.114;11.674;2023-03-11T15:09:15;100443.34;;;4.47
60731;BMP280;46580;52.114;11.674;2023-03-11T15:11:52;100457.41;;;4.39
60731;BMP280;46580;52.114;11.674;2023-03-11T15:14:23;100450.72;;;4.23
60731;BMP280;46580;52.114;11.674;2023-03-11T15:16:49;100448.00;;;4.10
60731;BMP280;46580;52.114;11.674;2023-03-11T15:21:54;100453.81;;;4.27
60731;BMP280;46580;52.114;11.674;2023-03-11T15:24:25;100445.97;;;4.45
60731;BMP280;46580;52.114;11.674;2023-03-11T15:27:15;100453.75;;;4.29
60731;BMP280;46580;52.114;11.674;2023-03-11T15:29:49;100455.53;;;4.12
60731;BMP280;46580;52.114;11.674;2023-03-11T15:32:25;100460.63;;;4.12
60731;BMP280;46580;52.114;11.674;2023-03-11T15:37:33;100456.69;;;3.91
60731;BMP280;46580;52.114;11.674;2023-03-11T15:40:18;100464.81;;;3.98
60731;BMP280;46580;52.114;11.674;2023-03-11T15:42:49;100471.88;;;3.93
60731;BMP280;46580;52.114;11.674;2023-03-11T15:45:16;100468.69;;;4.05
60731;BMP280;46580;52.114;11.674;2023-03-11T15:47:44;100468.19;;;4.13